sensor_id;sensor_type;location;lat;lon;timestamp;P1;durP1;ratioP1;P2;durP2;ratioP2
13218;SDS011;6674;49.152;11.918;2023-10-31T00:00:34;5.57;;;5.07;;
13218;SDS011;6674;49.152;11.918;2023-10-31T00:03:02;4.93;;;4.53;;
13218;SDS011;6674;49.152;11.918;2023-10-31T00:05:28;4.90;;;4.47;;
13218;SDS011;6674;49.152;11.918;2023-10-31T00:07:55;5.30;;;4.90;;
13218;SDS011;6674;49.152;11.918;2023-10-31T00:10:21;5.30;;;4.80;;
13218;SDS011;6674;49.152;11.918;2023-10-31T00:12:48;4.10;;;3.80;;
13218;SDS011;6674;49.152;11.918;2023-10-31T00:15:14;4.53;;;3.80;;
13218;SDS011;6674;49.152;11.918;2023-10-31T00:17:40;3.43;;;3.20;;
13218;SDS011;6674;49.152;11.918;2023-10-31T00:20:09;4.50;;;2.97;;
13218;SDS011;6674;49.152;11.918;2023-10-31T00:22:35;2.83;;;2.63;;
13218;SDS011;6674;49.152;11.918;2023-10-31T00:25:02;3.13;;;2.93;;
13218;SDS011;6674;49.152;11.918;2023-10-31T00:27:28;3.13;;;2.90;;
13218;SDS011;6674;49.152;11.918;2023-10-31T00:29:54;2.93;;;2.70;;
13218;SDS011;6674;49.152;11.918;2023-10-31T00:32:21;2.60;;;2.30;;
13218;SDS011;6674;49.152;11.918;2023-10-31T00:34:47;2.93;;;2.73;;
13218;SDS011;6674;49.152;11.918;2023-10-31T00:37:15;2.87;;;2.67;;
13218;SDS011;6674;49.152;11.918;2023-10-31T00:39:42;2.30;;;2.10;;
13218;SDS011;6674;49.152;11.918;2023-10-31T00:42:08;2.13;;;1.93;;
13218;SDS011;6674;49.152;11.918;2023-10-31T00:44:34;1.97;;;1.87;;
13218;SDS011;6674;49.152;11.918;2023-10-31T00:47:01;2.00;;;1.90;;
13218;SDS011;6674;49.152;11.918;2023-10-31T00:49:29;2.37;;;1.73;;
13218;SDS011;6674;49.152;11.918;2023-10-31T00:51:56;1.83;;;1.50;;
13218;SDS011;6674;49.152;11.918;2023-10-31T00:54:23;1.60;;;1.50;;
13218;SDS011;6674;49.152;11.918;2023-10-31T00:56:50;1.13;;;1.10;;
13218;SDS011;6674;49.152;11.918;2023-10-31T00:59:16;1.80;;;1.47;;
13218;SDS011;6674;49.152;11.918;2023-10-31T01:01:43;3.37;;;1.60;;
13218;SDS011;6674;49.152;11.918;2023-10-31T01:04:09;1.10;;;1.07;;
13218;SDS011;6674;49.152;11.918;2023-10-31T01:06:40;1.40;;;1.30;;
13218;SDS011;6674;49.152;11.918;2023-10-31T01:09:07;1.63;;;1.23;;
13218;SDS011;6674;49.152;11.918;2023-10-31T01:11:34;1.00;;;1.00;;
13218;SDS011;6674;49.152;11.918;2023-10-31T01:14:01;1.80;;;1.27;;
13218;SDS011;6674;49.152;11.918;2023-10-31T01:16:27;1.00;;;0.90;;
13218;SDS011;6674;49.152;11.918;2023-10-31T01:18:53;1.13;;;0.77;;
13218;SDS011;6674;49.152;11.918;2023-10-31T01:21:20;0.67;;;0.67;;
13218;SDS011;6674;49.152;11.918;2023-10-31T01:23:46;1.13;;;1.07;;
13218;SDS011;6674;49.152;11.918;2023-10-31T01:26:13;0.90;;;0.90;;
13218;SDS011;6674;49.152;11.918;2023-10-31T01:28:40;1.00;;;1.00;;
13218;SDS011;6674;49.152;11.918;2023-10-31T01:31:07;3.10;;;1.47;;
13218;SDS011;6674;49.152;11.918;2023-10-31T01:33:35;1.00;;;1.00;;
13218;SDS011;6674;49.152;11.918;2023-10-31T01:36:01;1.57;;;1.10;;
13218;SDS011;6674;49.152;11.918;2023-10-31T01:38:28;0.70;;;0.70;;
13218;SDS011;6674;49.152;11.918;2023-10-31T01:40:54;0.80;;;0.80;;
13218;SDS011;6674;49.152;11.918;2023-10-31T01:43:30;0.80;;;0.80;;
13218;SDS011;6674;49.152;11.918;2023-10-31T01:45:58;0.77;;;0.77;;
13218;SDS011;6674;49.152;11.918;2023-10-31T01:48:25;0.63;;;0.63;;
13218;SDS011;6674;49.152;11.918;2023-10-31T01:50:52;1.53;;;0.70;;
13218;SDS011;6674;49.152;11.918;2023-10-31T01:53:19;0.63;;;0.63;;
13218;SDS011;6674;49.152;11.918;2023-10-31T01:55:45;0.60;;;0.60;;
13218;SDS011;6674;49.152;11.918;2023-10-31T01:58:12;0.87;;;0.87;;
13218;SDS011;6674;49.152;11.918;2023-10-31T02:00:39;0.80;;;0.80;;
13218;SDS011;6674;49.152;11.918;2023-10-31T02:03:09;1.10;;;1.10;;
13218;SDS011;6674;49.152;11.918;2023-10-31T02:05:35;0.90;;;0.73;;
13218;SDS011;6674;49.152;11.918;2023-10-31T02:08:02;0.80;;;0.80;;
13218;SDS011;6674;49.152;11.918;2023-10-31T02:10:28;0.70;;;0.67;;
13218;SDS011;6674;49.152;11.918;2023-10-31T02:12:55;1.10;;;1.00;;
13218;SDS011;6674;49.152;11.918;2023-10-31T02:15:21;0.63;;;0.63;;
13218;SDS011;6674;49.152;11.918;2023-10-31T02:17:47;0.90;;;0.90;;
13218;SDS011;6674;49.152;11.918;2023-10-31T02:20:15;1.13;;;1.10;;
13218;SDS011;6674;49.152;11.918;2023-10-31T02:22:43;1.10;;;1.10;;
13218;SDS011;6674;49.152;11.918;2023-10-31T02:25:16;1.10;;;1.10;;
13218;SDS011;6674;49.152;11.918;2023-10-31T02:27:42;0.97;;;0.90;;
13218;SDS011;6674;49.152;11.918;2023-10-31T02:30:09;1.00;;;1.00;;
13218;SDS011;6674;49.152;11.918;2023-10-31T02:32:35;1.00;;;1.00;;
13218;SDS011;6674;49.152;11.918;2023-10-31T02:35:02;0.80;;;0.80;;
13218;SDS011;6674;49.152;11.918;2023-10-31T02:37:28;0.70;;;0.70;;
13218;SDS011;6674;49.152;11.918;2023-10-31T02:39:56;0.70;;;0.70;;
13218;SDS011;6674;49.152;11.918;2023-10-31T02:42:23;1.03;;;0.60;;
13218;SDS011;6674;49.152;11.918;2023-10-31T02:44:50;0.67;;;0.67;;
13218;SDS011;6674;49.152;11.918;2023-10-31T02:47:16;0.40;;;0.40;;
13218;SDS011;6674;49.152;11.918;2023-10-31T02:49:43;1.27;;;0.73;;
13218;SDS011;6674;49.152;11.918;2023-10-31T02:52:09;0.60;;;0.60;;
13218;SDS011;6674;49.152;11.918;2023-10-31T02:54:36;0.67;;;0.67;;
13218;SDS011;6674;49.152;11.918;2023-10-31T02:57:04;0.30;;;0.30;;
13218;SDS011;6674;49.152;11.918;2023-10-31T02:59:30;0.60;;;0.50;;
13218;SDS011;6674;49.152;11.918;2023-10-31T03:01:57;0.83;;;0.70;;
13218;SDS011;6674;49.152;11.918;2023-10-31T03:04:23;0.50;;;0.50;;
13218;SDS011;6674;49.152;11.918;2023-10-31T03:06:50;1.03;;;0.70;;
13218;SDS011;6674;49.152;11.918;2023-10-31T03:09:16;0.63;;;0.60;;
13218;SDS011;6674;49.152;11.918;2023-10-31T03:11:43;0.70;;;0.70;;
13218;SDS011;6674;49.152;11.918;2023-10-31T03:14:10;1.03;;;0.60;;
13218;SDS011;6674;49.152;11.918;2023-10-31T03:16:37;1.23;;;0.70;;
13218;SDS011;6674;49.152;11.918;2023-10-31T03:19:04;0.77;;;0.60;;
13218;SDS011;6674;49.152;11.918;2023-10-31T03:21:30;0.53;;;0.53;;
13218;SDS011;6674;49.152;11.918;2023-10-31T03:23:57;0.87;;;0.50;;
13218;SDS011;6674;49.152;11.918;2023-10-31T03:26:23;0.60;;;0.40;;
13218;SDS011;6674;49.152;11.918;2023-10-31T03:28:49;0.97;;;0.60;;
13218;SDS011;6674;49.152;11.918;2023-10-31T03:31:17;0.57;;;0.53;;
13218;SDS011;6674;49.152;11.918;2023-10-31T03:33:44;0.87;;;0.40;;
13218;SDS011;6674;49.152;11.918;2023-10-31T03:36:10;0.30;;;0.30;;
13218;SDS011;6674;49.152;11.918;2023-10-31T03:38:37;1.33;;;0.50;;
13218;SDS011;6674;49.152;11.918;2023-10-31T03:41:03;0.50;;;0.20;;
13218;SDS011;6674;49.152;11.918;2023-10-31T03:43:29;2.43;;;0.53;;
13218;SDS011;6674;49.152;11.918;2023-10-31T03:45:56;0.97;;;0.40;;
13218;SDS011;6674;49.152;11.918;2023-10-31T03:48:23;0.40;;;0.20;;
13218;SDS011;6674;49.152;11.918;2023-10-31T03:50:50;0.30;;;0.30;;
13218;SDS011;6674;49.152;11.918;2023-10-31T03:53:16;0.47;;;0.20;;
13218;SDS011;6674;49.152;11.918;2023-10-31T03:55:43;1.10;;;0.40;;
13218;SDS011;6674;49.152;11.918;2023-10-31T03:58:09;1.37;;;0.20;;
13218;SDS011;6674;49.152;11.918;2023-10-31T04:00:35;0.40;;;0.20;;
13218;SDS011;6674;49.152;11.918;2023-10-31T04:03:02;0.60;;;0.33;;
13218;SDS011;6674;49.152;11.918;2023-10-31T04:05:30;0.40;;;0.30;;
13218;SDS011;6674;49.152;11.918;2023-10-31T04:07:57;0.67;;;0.30;;
13218;SDS011;6674;49.152;11.918;2023-10-31T04:10:24;1.23;;;0.40;;
13218;SDS011;6674;49.152;11.918;2023-10-31T04:12:51;0.30;;;0.30;;
13218;SDS011;6674;49.152;11.918;2023-10-31T04:15:17;1.50;;;0.50;;
13218;SDS011;6674;49.152;11.918;2023-10-31T04:17:44;0.50;;;0.40;;
13218;SDS011;6674;49.152;11.918;2023-10-31T04:20:10;0.20;;;0.20;;
13218;SDS011;6674;49.152;11.918;2023-10-31T04:22:38;0.70;;;0.50;;
13218;SDS011;6674;49.152;11.918;2023-10-31T04:25:05;0.50;;;0.40;;
13218;SDS011;6674;49.152;11.918;2023-10-31T04:27:31;0.20;;;0.20;;
13218;SDS011;6674;49.152;11.918;2023-10-31T04:29:57;0.23;;;0.23;;
13218;SDS011;6674;49.152;11.918;2023-10-31T04:32:24;1.13;;;0.30;;
13218;SDS011;6674;49.152;11.918;2023-10-31T04:34:51;0.33;;;0.33;;
13218;SDS011;6674;49.152;11.918;2023-10-31T04:37:17;0.60;;;0.50;;
13218;SDS011;6674;49.152;11.918;2023-10-31T04:39:45;0.80;;;0.50;;
13218;SDS011;6674;49.152;11.918;2023-10-31T04:42:11;0.80;;;0.40;;
13218;SDS011;6674;49.152;11.918;2023-10-31T04:44:38;0.23;;;0.23;;
13218;SDS011;6674;49.152;11.918;2023-10-31T04:47:04;0.40;;;0.40;;
13218;SDS011;6674;49.152;11.918;2023-10-31T04:49:32;0.90;;;0.60;;
13218;SDS011;6674;49.152;11.918;2023-10-31T04:52:00;0.83;;;0.43;;
13218;SDS011;6674;49.152;11.918;2023-10-31T04:54:26;0.80;;;0.40;;
13218;SDS011;6674;49.152;11.918;2023-10-31T04:56:54;0.40;;;0.40;;
13218;SDS011;6674;49.152;11.918;2023-10-31T04:59:21;0.60;;;0.50;;
13218;SDS011;6674;49.152;11.918;2023-10-31T05:01:50;0.40;;;0.40;;
13218;SDS011;6674;49.152;11.918;2023-10-31T05:04:17;0.50;;;0.50;;
13218;SDS011;6674;49.152;11.918;2023-10-31T05:06:44;0.47;;;0.43;;
13218;SDS011;6674;49.152;11.918;2023-10-31T05:09:10;0.40;;;0.40;;
13218;SDS011;6674;49.152;11.918;2023-10-31T05:11:37;0.40;;;0.40;;
13218;SDS011;6674;49.152;11.918;2023-10-31T05:14:06;0.70;;;0.67;;
13218;SDS011;6674;49.152;11.918;2023-10-31T05:16:38;0.73;;;0.60;;
13218;SDS011;6674;49.152;11.918;2023-10-31T05:19:04;1.40;;;0.57;;
13218;SDS011;6674;49.152;11.918;2023-10-31T05:21:31;1.17;;;0.50;;
13218;SDS011;6674;49.152;11.918;2023-10-31T05:23:57;0.50;;;0.50;;
13218;SDS011;6674;49.152;11.918;2023-10-31T05:26:23;1.23;;;0.80;;
13218;SDS011;6674;49.152;11.918;2023-10-31T05:28:50;1.53;;;0.60;;
13218;SDS011;6674;49.152;11.918;2023-10-31T05:31:17;1.63;;;0.70;;
13218;SDS011;6674;49.152;11.918;2023-10-31T05:33:45;1.13;;;0.50;;
13218;SDS011;6674;49.152;11.918;2023-10-31T05:36:17;0.50;;;0.50;;
13218;SDS011;6674;49.152;11.918;2023-10-31T05:38:43;0.70;;;0.60;;
13218;SDS011;6674;49.152;11.918;2023-10-31T05:41:10;1.70;;;0.80;;
13218;SDS011;6674;49.152;11.918;2023-10-31T05:43:36;0.40;;;0.40;;
13218;SDS011;6674;49.152;11.918;2023-10-31T05:46:03;1.10;;;0.70;;
13218;SDS011;6674;49.152;11.918;2023-10-31T05:48:31;0.67;;;0.67;;
13218;SDS011;6674;49.152;11.918;2023-10-31T05:50:58;1.17;;;0.50;;
13218;SDS011;6674;49.152;11.918;2023-10-31T05:53:24;0.73;;;0.50;;
13218;SDS011;6674;49.152;11.918;2023-10-31T05:55:50;1.20;;;0.77;;
13218;SDS011;6674;49.152;11.918;2023-10-31T05:58:17;2.07;;;1.13;;
13218;SDS011;6674;49.152;11.918;2023-10-31T06:00:43;0.40;;;0.37;;
13218;SDS011;6674;49.152;11.918;2023-10-31T06:03:09;0.83;;;0.50;;
13218;SDS011;6674;49.152;11.918;2023-10-31T06:05:37;1.17;;;0.60;;
13218;SDS011;6674;49.152;11.918;2023-10-31T06:08:05;1.17;;;0.60;;
13218;SDS011;6674;49.152;11.918;2023-10-31T06:10:31;0.53;;;0.53;;
13218;SDS011;6674;49.152;11.918;2023-10-31T06:12:59;1.50;;;0.80;;
13218;SDS011;6674;49.152;11.918;2023-10-31T06:15:25;1.10;;;0.60;;
13218;SDS011;6674;49.152;11.918;2023-10-31T06:17:51;1.53;;;0.70;;
13218;SDS011;6674;49.152;11.918;2023-10-31T06:20:18;0.47;;;0.40;;
13218;SDS011;6674;49.152;11.918;2023-10-31T06:22:46;2.23;;;0.73;;
13218;SDS011;6674;49.152;11.918;2023-10-31T06:25:12;0.53;;;0.50;;
13218;SDS011;6674;49.152;11.918;2023-10-31T06:27:38;1.20;;;0.57;;
13218;SDS011;6674;49.152;11.918;2023-10-31T06:30:05;1.47;;;0.70;;
13218;SDS011;6674;49.152;11.918;2023-10-31T06:32:32;0.70;;;0.33;;
13218;SDS011;6674;49.152;11.918;2023-10-31T06:34:58;1.13;;;0.70;;
13218;SDS011;6674;49.152;11.918;2023-10-31T06:37:25;0.50;;;0.50;;
13218;SDS011;6674;49.152;11.918;2023-10-31T06:39:53;0.80;;;0.53;;
13218;SDS011;6674;49.152;11.918;2023-10-31T06:42:20;1.27;;;0.70;;
13218;SDS011;6674;49.152;11.918;2023-10-31T06:44:46;1.10;;;0.60;;
13218;SDS011;6674;49.152;11.918;2023-10-31T06:47:13;2.00;;;0.83;;
13218;SDS011;6674;49.152;11.918;2023-10-31T06:49:39;2.60;;;0.50;;
13218;SDS011;6674;49.152;11.918;2023-10-31T06:52:06;1.00;;;0.60;;
13218;SDS011;6674;49.152;11.918;2023-10-31T06:54:33;2.33;;;0.40;;
13218;SDS011;6674;49.152;11.918;2023-10-31T06:57:02;0.83;;;0.50;;
13218;SDS011;6674;49.152;11.918;2023-10-31T06:59:29;0.50;;;0.43;;
13218;SDS011;6674;49.152;11.918;2023-10-31T07:01:56;0.60;;;0.40;;
13218;SDS011;6674;49.152;11.918;2023-10-31T07:04:22;2.87;;;0.73;;
13218;SDS011;6674;49.152;11.918;2023-10-31T07:06:49;1.13;;;0.60;;
13218;SDS011;6674;49.152;11.918;2023-10-31T07:09:22;0.70;;;0.40;;
13218;SDS011;6674;49.152;11.918;2023-10-31T07:11:48;1.13;;;0.73;;
13218;SDS011;6674;49.152;11.918;2023-10-31T07:14:16;1.00;;;0.50;;
13218;SDS011;6674;49.152;11.918;2023-10-31T07:16:42;0.63;;;0.50;;
13218;SDS011;6674;49.152;11.918;2023-10-31T07:19:09;1.13;;;0.50;;
13218;SDS011;6674;49.152;11.918;2023-10-31T07:21:36;1.47;;;0.80;;
13218;SDS011;6674;49.152;11.918;2023-10-31T07:24:04;1.67;;;0.53;;
13218;SDS011;6674;49.152;11.918;2023-10-31T07:26:32;1.60;;;0.40;;
13218;SDS011;6674;49.152;11.918;2023-10-31T07:28:59;0.40;;;0.40;;
13218;SDS011;6674;49.152;11.918;2023-10-31T07:31:27;1.80;;;0.63;;
13218;SDS011;6674;49.152;11.918;2023-10-31T07:33:54;0.87;;;0.67;;
13218;SDS011;6674;49.152;11.918;2023-10-31T07:36:21;1.00;;;0.50;;
13218;SDS011;6674;49.152;11.918;2023-10-31T07:38:47;1.23;;;0.50;;
13218;SDS011;6674;49.152;11.918;2023-10-31T07:41:14;1.20;;;0.50;;
13218;SDS011;6674;49.152;11.918;2023-10-31T07:43:41;1.63;;;0.63;;
13218;SDS011;6674;49.152;11.918;2023-10-31T07:46:07;1.60;;;0.50;;
13218;SDS011;6674;49.152;11.918;2023-10-31T07:48:35;1.57;;;0.70;;
13218;SDS011;6674;49.152;11.918;2023-10-31T07:51:02;1.03;;;0.60;;
13218;SDS011;6674;49.152;11.918;2023-10-31T07:53:29;0.57;;;0.50;;
13218;SDS011;6674;49.152;11.918;2023-10-31T07:55:55;1.47;;;0.70;;
13218;SDS011;6674;49.152;11.918;2023-10-31T07:58:22;0.60;;;0.60;;
13218;SDS011;6674;49.152;11.918;2023-10-31T08:00:48;0.87;;;0.50;;
13218;SDS011;6674;49.152;11.918;2023-10-31T08:03:15;1.33;;;0.60;;
13218;SDS011;6674;49.152;11.918;2023-10-31T08:05:42;0.57;;;0.57;;
13218;SDS011;6674;49.152;11.918;2023-10-31T08:08:09;1.30;;;0.67;;
13218;SDS011;6674;49.152;11.918;2023-10-31T08:10:35;1.47;;;0.60;;
13218;SDS011;6674;49.152;11.918;2023-10-31T08:13:02;1.33;;;0.47;;
13218;SDS011;6674;49.152;11.918;2023-10-31T08:15:28;1.47;;;0.30;;
13218;SDS011;6674;49.152;11.918;2023-10-31T08:17:55;0.67;;;0.47;;
13218;SDS011;6674;49.152;11.918;2023-10-31T08:20:22;1.53;;;0.40;;
13218;SDS011;6674;49.152;11.918;2023-10-31T08:22:49;1.50;;;0.60;;
13218;SDS011;6674;49.152;11.918;2023-10-31T08:25:16;0.93;;;0.60;;
13218;SDS011;6674;49.152;11.918;2023-10-31T08:27:42;1.10;;;0.80;;
13218;SDS011;6674;49.152;11.918;2023-10-31T08:30:09;1.57;;;0.50;;
13218;SDS011;6674;49.152;11.918;2023-10-31T08:32:36;1.27;;;0.50;;
13218;SDS011;6674;49.152;11.918;2023-10-31T08:35:03;0.50;;;0.50;;
13218;SDS011;6674;49.152;11.918;2023-10-31T08:37:29;1.43;;;0.77;;
13218;SDS011;6674;49.152;11.918;2023-10-31T08:39:57;0.77;;;0.50;;
13218;SDS011;6674;49.152;11.918;2023-10-31T08:42:24;1.17;;;0.50;;
13218;SDS011;6674;49.152;11.918;2023-10-31T08:44:50;1.20;;;0.50;;
13218;SDS011;6674;49.152;11.918;2023-10-31T08:47:17;1.17;;;0.50;;
13218;SDS011;6674;49.152;11.918;2023-10-31T08:49:44;0.93;;;0.60;;
13218;SDS011;6674;49.152;11.918;2023-10-31T08:52:10;0.50;;;0.50;;
13218;SDS011;6674;49.152;11.918;2023-10-31T08:54:37;1.33;;;0.53;;
13218;SDS011;6674;49.152;11.918;2023-10-31T08:57:05;1.13;;;0.60;;
13218;SDS011;6674;49.152;11.918;2023-10-31T08:59:31;0.70;;;0.50;;
13218;SDS011;6674;49.152;11.918;2023-10-31T09:01:57;0.70;;;0.60;;
13218;SDS011;6674;49.152;11.918;2023-10-31T09:04:24;1.00;;;0.80;;
13218;SDS011;6674;49.152;11.918;2023-10-31T09:06:50;1.27;;;0.60;;
13218;SDS011;6674;49.152;11.918;2023-10-31T09:09:19;2.03;;;0.60;;
13218;SDS011;6674;49.152;11.918;2023-10-31T09:11:45;0.70;;;0.70;;
13218;SDS011;6674;49.152;11.918;2023-10-31T09:14:13;0.73;;;0.53;;
13218;SDS011;6674;49.152;11.918;2023-10-31T09:16:40;1.17;;;0.40;;
13218;SDS011;6674;49.152;11.918;2023-10-31T09:19:09;1.30;;;0.57;;
13218;SDS011;6674;49.152;11.918;2023-10-31T09:21:35;0.93;;;0.60;;
13218;SDS011;6674;49.152;11.918;2023-10-31T09:24:02;1.17;;;0.50;;
13218;SDS011;6674;49.152;11.918;2023-10-31T09:26:29;0.63;;;0.40;;
13218;SDS011;6674;49.152;11.918;2023-10-31T09:28:55;0.30;;;0.30;;
13218;SDS011;6674;49.152;11.918;2023-10-31T09:31:23;1.10;;;0.50;;
13218;SDS011;6674;49.152;11.918;2023-10-31T09:33:52;1.00;;;0.73;;
13218;SDS011;6674;49.152;11.918;2023-10-31T09:36:19;0.30;;;0.30;;
13218;SDS011;6674;49.152;11.918;2023-10-31T09:38:46;1.50;;;0.40;;
13218;SDS011;6674;49.152;11.918;2023-10-31T09:41:12;0.50;;;0.40;;
13218;SDS011;6674;49.152;11.918;2023-10-31T09:43:39;1.27;;;0.40;;
13218;SDS011;6674;49.152;11.918;2023-10-31T09:46:06;0.63;;;0.50;;
13218;SDS011;6674;49.152;11.918;2023-10-31T09:48:33;0.67;;;0.60;;
13218;SDS011;6674;49.152;11.918;2023-10-31T09:51:00;1.03;;;0.40;;
13218;SDS011;6674;49.152;11.918;2023-10-31T09:53:26;0.40;;;0.37;;
13218;SDS011;6674;49.152;11.918;2023-10-31T09:55:54;0.60;;;0.50;;
13218;SDS011;6674;49.152;11.918;2023-10-31T09:58:22;0.30;;;0.30;;
13218;SDS011;6674;49.152;11.918;2023-10-31T10:00:48;2.40;;;0.60;;
13218;SDS011;6674;49.152;11.918;2023-10-31T10:03:16;1.53;;;0.43;;
13218;SDS011;6674;49.152;11.918;2023-10-31T10:05:44;1.00;;;0.50;;
13218;SDS011;6674;49.152;11.918;2023-10-31T10:08:12;1.67;;;0.60;;
13218;SDS011;6674;49.152;11.918;2023-10-31T10:10:40;1.90;;;0.60;;
13218;SDS011;6674;49.152;11.918;2023-10-31T10:13:07;0.73;;;0.50;;
13218;SDS011;6674;49.152;11.918;2023-10-31T10:15:43;0.57;;;0.40;;
13218;SDS011;6674;49.152;11.918;2023-10-31T10:18:09;1.17;;;0.50;;
13218;SDS011;6674;49.152;11.918;2023-10-31T10:20:42;2.17;;;0.90;;
13218;SDS011;6674;49.152;11.918;2023-10-31T10:23:21;0.77;;;0.40;;
13218;SDS011;6674;49.152;11.918;2023-10-31T10:25:48;0.40;;;0.40;;
13218;SDS011;6674;49.152;11.918;2023-10-31T10:28:14;1.13;;;0.50;;
13218;SDS011;6674;49.152;11.918;2023-10-31T10:30:41;1.37;;;0.60;;
13218;SDS011;6674;49.152;11.918;2023-10-31T10:33:10;0.57;;;0.50;;
13218;SDS011;6674;49.152;11.918;2023-10-31T10:35:37;0.60;;;0.60;;
13218;SDS011;6674;49.152;11.918;2023-10-31T10:38:03;1.23;;;0.50;;
13218;SDS011;6674;49.152;11.918;2023-10-31T10:40:33;0.57;;;0.40;;
13218;SDS011;6674;49.152;11.918;2023-10-31T10:43:00;1.63;;;0.60;;
13218;SDS011;6674;49.152;11.918;2023-10-31T10:45:33;1.00;;;0.60;;
13218;SDS011;6674;49.152;11.918;2023-10-31T10:47:59;1.83;;;0.30;;
13218;SDS011;6674;49.152;11.918;2023-10-31T10:50:29;1.27;;;0.60;;
13218;SDS011;6674;49.152;11.918;2023-10-31T10:52:59;0.60;;;0.40;;
13218;SDS011;6674;49.152;11.918;2023-10-31T10:55:27;0.97;;;0.50;;
13218;SDS011;6674;49.152;11.918;2023-10-31T10:58:01;0.77;;;0.50;;
13218;SDS011;6674;49.152;11.918;2023-10-31T11:00:30;1.17;;;0.50;;
13218;SDS011;6674;49.152;11.918;2023-10-31T11:02:57;1.90;;;0.47;;
13218;SDS011;6674;49.152;11.918;2023-10-31T11:05:23;0.57;;;0.43;;
13218;SDS011;6674;49.152;11.918;2023-10-31T11:07:51;0.87;;;0.50;;
13218;SDS011;6674;49.152;11.918;2023-10-31T11:10:18;0.73;;;0.57;;
13218;SDS011;6674;49.152;11.918;2023-10-31T11:12:44;0.60;;;0.23;;
13218;SDS011;6674;49.152;11.918;2023-10-31T11:15:12;0.70;;;0.60;;
13218;SDS011;6674;49.152;11.918;2023-10-31T11:17:40;0.33;;;0.33;;
13218;SDS011;6674;49.152;11.918;2023-10-31T11:20:09;1.27;;;0.60;;
13218;SDS011;6674;49.152;11.918;2023-10-31T11:22:39;1.77;;;0.50;;
13218;SDS011;6674;49.152;11.918;2023-10-31T11:25:06;0.33;;;0.30;;
13218;SDS011;6674;49.152;11.918;2023-10-31T11:27:33;1.30;;;0.47;;
13218;SDS011;6674;49.152;11.918;2023-10-31T11:30:00;0.60;;;0.40;;
13218;SDS011;6674;49.152;11.918;2023-10-31T11:32:28;0.47;;;0.30;;
13218;SDS011;6674;49.152;11.918;2023-10-31T11:34:54;0.40;;;0.40;;
13218;SDS011;6674;49.152;11.918;2023-10-31T11:37:25;0.47;;;0.40;;
13218;SDS011;6674;49.152;11.918;2023-10-31T11:42:37;0.57;;;0.47;;
13218;SDS011;6674;49.152;11.918;2023-10-31T11:45:04;0.77;;;0.40;;
13218;SDS011;6674;49.152;11.918;2023-10-31T11:50:13;0.80;;;0.80;;
13218;SDS011;6674;49.152;11.918;2023-10-31T11:52:40;0.77;;;0.40;;
13218;SDS011;6674;49.152;11.918;2023-10-31T11:55:08;0.77;;;0.53;;
13218;SDS011;6674;49.152;11.918;2023-10-31T11:57:35;1.30;;;0.60;;
13218;SDS011;6674;49.152;11.918;2023-10-31T12:00:01;1.17;;;0.73;;
13218;SDS011;6674;49.152;11.918;2023-10-31T12:02:28;0.40;;;0.40;;
13218;SDS011;6674;49.152;11.918;2023-10-31T12:05:06;0.50;;;0.50;;
13218;SDS011;6674;49.152;11.918;2023-10-31T12:07:42;0.93;;;0.70;;
13218;SDS011;6674;49.152;11.918;2023-10-31T12:10:08;0.97;;;0.60;;
13218;SDS011;6674;49.152;11.918;2023-10-31T12:12:35;0.50;;;0.50;;
13218;SDS011;6674;49.152;11.918;2023-10-31T12:15:05;1.07;;;0.70;;
13218;SDS011;6674;49.152;11.918;2023-10-31T12:17:33;0.53;;;0.53;;
13218;SDS011;6674;49.152;11.918;2023-10-31T12:20:03;0.53;;;0.53;;
13218;SDS011;6674;49.152;11.918;2023-10-31T12:22:30;0.53;;;0.53;;
13218;SDS011;6674;49.152;11.918;2023-10-31T12:25:01;0.77;;;0.70;;
13218;SDS011;6674;49.152;11.918;2023-10-31T12:27:41;0.90;;;0.60;;
13218;SDS011;6674;49.152;11.918;2023-10-31T12:30:10;1.50;;;0.73;;
13218;SDS011;6674;49.152;11.918;2023-10-31T12:32:37;1.73;;;1.23;;
13218;SDS011;6674;49.152;11.918;2023-10-31T12:35:04;3.17;;;1.03;;
13218;SDS011;6674;49.152;11.918;2023-10-31T12:37:31;1.20;;;0.77;;
13218;SDS011;6674;49.152;11.918;2023-10-31T12:39:58;1.23;;;0.70;;
13218;SDS011;6674;49.152;11.918;2023-10-31T12:42:30;1.43;;;0.70;;
13218;SDS011;6674;49.152;11.918;2023-10-31T12:44:57;0.93;;;0.80;;
13218;SDS011;6674;49.152;11.918;2023-10-31T12:47:24;1.53;;;0.77;;
13218;SDS011;6674;49.152;11.918;2023-10-31T12:50:04;2.07;;;0.70;;
13218;SDS011;6674;49.152;11.918;2023-10-31T12:52:44;2.07;;;0.70;;
13218;SDS011;6674;49.152;11.918;2023-10-31T12:55:14;2.17;;;1.07;;
13218;SDS011;6674;49.152;11.918;2023-10-31T12:57:42;1.27;;;0.90;;
13218;SDS011;6674;49.152;11.918;2023-10-31T13:00:09;1.97;;;0.90;;
13218;SDS011;6674;49.152;11.918;2023-10-31T13:02:38;1.50;;;0.80;;
13218;SDS011;6674;49.152;11.918;2023-10-31T13:05:08;1.60;;;1.00;;
13218;SDS011;6674;49.152;11.918;2023-10-31T13:07:34;1.20;;;1.00;;
13218;SDS011;6674;49.152;11.918;2023-10-31T13:10:01;1.20;;;0.90;;
13218;SDS011;6674;49.152;11.918;2023-10-31T13:12:29;0.90;;;0.80;;
13218;SDS011;6674;49.152;11.918;2023-10-31T13:14:57;1.40;;;0.80;;
13218;SDS011;6674;49.152;11.918;2023-10-31T13:17:25;1.67;;;1.10;;
13218;SDS011;6674;49.152;11.918;2023-10-31T13:19:52;2.10;;;0.87;;
13218;SDS011;6674;49.152;11.918;2023-10-31T13:22:19;1.67;;;0.90;;
13218;SDS011;6674;49.152;11.918;2023-10-31T13:24:45;1.57;;;1.17;;
13218;SDS011;6674;49.152;11.918;2023-10-31T13:27:12;1.87;;;0.83;;
13218;SDS011;6674;49.152;11.918;2023-10-31T13:29:41;1.87;;;1.00;;
13218;SDS011;6674;49.152;11.918;2023-10-31T13:32:08;2.20;;;1.03;;
13218;SDS011;6674;49.152;11.918;2023-10-31T13:34:35;1.30;;;1.00;;
13218;SDS011;6674;49.152;11.918;2023-10-31T13:37:02;2.13;;;0.90;;
13218;SDS011;6674;49.152;11.918;2023-10-31T13:39:28;3.07;;;0.97;;
13218;SDS011;6674;49.152;11.918;2023-10-31T13:41:55;1.40;;;0.80;;
13218;SDS011;6674;49.152;11.918;2023-10-31T13:44:21;1.33;;;0.70;;
13218;SDS011;6674;49.152;11.918;2023-10-31T13:46:48;1.70;;;0.80;;
13218;SDS011;6674;49.152;11.918;2023-10-31T13:49:15;2.40;;;0.80;;
13218;SDS011;6674;49.152;11.918;2023-10-31T13:51:42;1.00;;;0.83;;
13218;SDS011;6674;49.152;11.918;2023-10-31T13:54:08;1.23;;;0.80;;
13218;SDS011;6674;49.152;11.918;2023-10-31T13:56:35;1.30;;;0.90;;
13218;SDS011;6674;49.152;11.918;2023-10-31T13:59:01;2.40;;;1.33;;
13218;SDS011;6674;49.152;11.918;2023-10-31T14:01:27;2.67;;;1.20;;
13218;SDS011;6674;49.152;11.918;2023-10-31T14:03:55;1.17;;;0.70;;
13218;SDS011;6674;49.152;11.918;2023-10-31T14:06:24;2.40;;;0.97;;
13218;SDS011;6674;49.152;11.918;2023-10-31T14:08:56;3.13;;;0.80;;
13218;SDS011;6674;49.152;11.918;2023-10-31T14:11:22;2.43;;;1.00;;
13218;SDS011;6674;49.152;11.918;2023-10-31T14:13:48;1.20;;;0.80;;
13218;SDS011;6674;49.152;11.918;2023-10-31T14:16:16;3.20;;;1.00;;
13218;SDS011;6674;49.152;11.918;2023-10-31T14:18:43;2.60;;;1.07;;
13218;SDS011;6674;49.152;11.918;2023-10-31T14:21:11;1.07;;;0.73;;
13218;SDS011;6674;49.152;11.918;2023-10-31T14:23:39;1.20;;;1.00;;
13218;SDS011;6674;49.152;11.918;2023-10-31T14:26:06;3.73;;;0.93;;
13218;SDS011;6674;49.152;11.918;2023-10-31T14:28:34;2.57;;;0.87;;
13218;SDS011;6674;49.152;11.918;2023-10-31T14:31:00;2.80;;;1.07;;
13218;SDS011;6674;49.152;11.918;2023-10-31T14:33:27;4.27;;;1.10;;
13218;SDS011;6674;49.152;11.918;2023-10-31T14:35:54;3.10;;;1.40;;
13218;SDS011;6674;49.152;11.918;2023-10-31T14:38:21;1.57;;;1.10;;
13218;SDS011;6674;49.152;11.918;2023-10-31T14:40:49;2.60;;;1.33;;
13218;SDS011;6674;49.152;11.918;2023-10-31T14:43:15;2.97;;;1.03;;
13218;SDS011;6674;49.152;11.918;2023-10-31T14:45:43;1.63;;;1.00;;
13218;SDS011;6674;49.152;11.918;2023-10-31T14:48:10;2.00;;;1.07;;
13218;SDS011;6674;49.152;11.918;2023-10-31T14:50:36;1.43;;;1.00;;
13218;SDS011;6674;49.152;11.918;2023-10-31T14:53:04;2.30;;;1.13;;